createdAt,value
2024-04-15T00:01:10.739Z,2.58
2024-04-15T00:03:57.767Z,2.25
2024-04-15T00:06:27.057Z,2.10
2024-04-15T00:08:55.992Z,3.05
2024-04-15T00:11:24.400Z,2.92
2024-04-15T00:13:53.207Z,2.50
2024-04-15T00:16:21.842Z,2.92
2024-04-15T00:18:51.149Z,2.42
2024-04-15T00:21:19.067Z,2.78
2024-04-15T00:23:48.368Z,2.60
2024-04-15T00:26:16.310Z,2.65
2024-04-15T00:28:45.458Z,3.38
2024-04-15T00:31:13.860Z,2.75
2024-04-15T00:33:44.257Z,2.78
2024-04-15T00:36:12.518Z,2.22
2024-04-15T00:38:41.356Z,2.30
2024-04-15T00:41:09.642Z,2.80
2024-04-15T00:43:47.268Z,2.53
2024-04-15T00:46:16.376Z,2.63
2024-04-15T00:48:46.248Z,2.75
2024-04-15T00:51:15.287Z,2.60
2024-04-15T00:53:46.176Z,2.47
2024-04-15T00:56:14.482Z,2.83
2024-04-15T00:58:44.505Z,2.75
2024-04-15T01:01:14.992Z,2.60
2024-04-15T01:03:45.526Z,2.63
2024-04-15T01:06:14.669Z,3.40
2024-04-15T01:08:43.379Z,2.70
2024-04-15T01:11:13.934Z,2.50
2024-04-15T01:13:42.747Z,2.83
2024-04-15T01:16:11.346Z,2.38
2024-04-15T01:18:40.254Z,2.78
2024-04-15T01:21:09.972Z,2.20
2024-04-15T01:23:50.448Z,2.95
2024-04-15T01:26:19.299Z,2.92
2024-04-15T01:28:48.395Z,2.88
2024-04-15T01:31:16.605Z,2.53
2024-04-15T01:33:45.476Z,2.60
2024-04-15T01:36:13.826Z,3.05
2024-04-15T01:38:43.007Z,3.08
2024-04-15T01:41:10.913Z,2.53
2024-04-15T01:43:39.713Z,2.70
2024-04-15T01:46:08.004Z,2.60
2024-04-15T01:48:36.948Z,2.50
2024-04-15T01:51:05.497Z,2.92
2024-04-15T01:53:34.514Z,2.92
2024-04-15T01:56:03.017Z,2.22
2024-04-15T01:58:31.732Z,2.85
2024-04-15T02:01:11.772Z,3.38
2024-04-15T02:03:41.552Z,3.20
2024-04-15T02:06:11.714Z,2.63
2024-04-15T02:08:41.049Z,3.13
2024-04-15T02:11:09.782Z,2.97
2024-04-15T02:13:38.726Z,2.65
2024-04-15T02:16:07.472Z,2.95
2024-04-15T02:18:36.381Z,3.30
2024-04-15T02:21:04.669Z,3.00
2024-04-15T02:23:33.945Z,3.70
2024-04-15T02:26:02.686Z,2.97
2024-04-15T02:28:31.237Z,2.65
2024-04-15T02:30:59.741Z,3.53
2024-04-15T02:33:28.987Z,3.17
2024-04-15T02:35:57.247Z,2.88
2024-04-15T02:38:25.886Z,3.40
2024-04-15T02:40:56.842Z,3.05
2024-04-15T02:43:25.955Z,2.90
2024-04-15T02:45:53.839Z,2.88
2024-04-15T02:48:22.629Z,2.97
2024-04-15T02:50:51.139Z,2.80
2024-04-15T02:53:19.972Z,3.45
2024-04-15T02:55:48.432Z,3.28
2024-04-15T02:58:17.137Z,3.13
2024-04-15T03:00:45.189Z,3.35
2024-04-15T03:03:14.532Z,3.05
2024-04-15T03:05:43.164Z,2.92
2024-04-15T03:08:12.161Z,3.03
2024-04-15T03:10:40.385Z,3.65
2024-04-15T03:13:09.300Z,3.67
2024-04-15T03:15:37.818Z,3.13
2024-04-15T03:18:06.589Z,2.70
2024-04-15T03:20:35.303Z,3.05
2024-04-15T03:23:04.768Z,3.30
2024-04-15T03:25:33.219Z,2.67
2024-04-15T03:28:01.781Z,3.50
2024-04-15T03:30:30.509Z,4.35
2024-04-15T03:32:59.322Z,2.92
2024-04-15T03:35:27.813Z,2.97
2024-04-15T03:37:56.549Z,4.35
2024-04-15T03:40:25.294Z,3.83
2024-04-15T03:42:54.780Z,3.40
2024-04-15T03:45:22.971Z,6.13
2024-04-15T03:47:52.028Z,5.75
2024-04-15T03:50:22.336Z,4.03
2024-04-15T03:52:56.124Z,3.35
2024-04-15T03:55:24.327Z,3.20
2024-04-15T03:57:54.717Z,2.88
2024-04-15T04:00:23.344Z,3.35
2024-04-15T04:02:53.786Z,4.10
2024-04-15T04:05:22.541Z,3.70
2024-04-15T04:07:51.387Z,3.50
2024-04-15T04:10:21.116Z,3.42
2024-04-15T04:12:50.451Z,3.67
2024-04-15T04:15:19.120Z,3.55
2024-04-15T04:17:48.080Z,3.00
2024-04-15T04:20:16.522Z,4.18
2024-04-15T04:22:45.564Z,3.78
2024-04-15T04:25:13.947Z,3.58
2024-04-15T04:27:43.222Z,3.95
2024-04-15T04:30:11.994Z,3.15
2024-04-15T04:32:41.883Z,3.60
2024-04-15T04:35:11.185Z,3.60
2024-04-15T04:37:42.859Z,3.38
2024-04-15T04:40:11.553Z,3.70
2024-04-15T04:42:44.401Z,4.13
2024-04-15T04:45:12.759Z,3.15
2024-04-15T04:47:41.377Z,4.63
2024-04-15T04:50:09.622Z,3.85
2024-04-15T04:52:38.502Z,3.53
2024-04-15T04:55:06.910Z,4.15
2024-04-15T04:57:36.288Z,3.55
2024-04-15T05:00:04.978Z,4.00
2024-04-15T05:02:34.111Z,3.97
2024-04-15T05:05:02.188Z,4.07
2024-04-15T05:07:31.022Z,4.32
2024-04-15T05:09:59.430Z,4.05
2024-04-15T05:12:28.766Z,3.85
2024-04-15T05:14:56.695Z,4.40
2024-04-15T05:17:25.608Z,4.38
2024-04-15T05:19:53.876Z,4.00
2024-04-15T05:22:22.665Z,4.40
2024-04-15T05:24:51.053Z,4.30
2024-04-15T05:27:19.754Z,4.45
2024-04-15T05:29:48.092Z,4.07
2024-04-15T05:32:17.172Z,4.40
2024-04-15T05:34:45.635Z,3.40
2024-04-15T05:37:14.932Z,4.57
2024-04-15T05:39:45.105Z,4.43
2024-04-15T05:42:15.333Z,4.53
2024-04-15T05:44:43.920Z,4.18
2024-04-15T05:47:12.795Z,4.57
2024-04-15T05:49:40.751Z,4.57
2024-04-15T05:52:09.471Z,4.78
2024-04-15T05:54:37.966Z,4.88
2024-04-15T05:57:06.661Z,4.32
2024-04-15T05:59:35.229Z,4.18
2024-04-15T06:02:03.917Z,5.13
2024-04-15T06:04:37.115Z,4.65
2024-04-15T06:07:05.487Z,5.35
2024-04-15T06:09:34.567Z,4.25
2024-04-15T06:12:02.703Z,4.22
2024-04-15T06:14:32.053Z,4.35
2024-04-15T06:17:02.658Z,6.30
2024-04-15T06:19:32.023Z,4.40
2024-04-15T06:22:02.548Z,4.53
2024-04-15T06:24:32.732Z,3.92
2024-04-15T06:27:01.263Z,7.20
2024-04-15T06:29:30.306Z,4.22
2024-04-15T06:31:58.680Z,4.03
2024-04-15T06:34:31.141Z,3.88
2024-04-15T06:37:00.573Z,3.97
2024-04-15T06:39:30.488Z,3.33
2024-04-15T06:41:59.040Z,4.22
2024-04-15T06:44:28.462Z,3.83
2024-04-15T06:46:57.373Z,4.40
2024-04-15T06:49:27.014Z,3.92
2024-04-15T06:51:56.350Z,4.25
2024-04-15T06:54:25.099Z,4.30
2024-04-15T06:56:53.122Z,4.90
2024-04-15T06:59:22.534Z,4.28
2024-04-15T07:01:51.334Z,4.63
2024-04-15T07:04:20.785Z,4.18
2024-04-15T07:06:49.634Z,4.32
2024-04-15T07:09:20.321Z,4.25
2024-04-15T07:11:48.868Z,4.32
2024-04-15T07:14:17.532Z,5.95
2024-04-15T07:16:46.052Z,4.90
2024-04-15T07:19:16.614Z,4.00
2024-04-15T07:21:45.017Z,4.35
2024-04-15T07:24:13.983Z,4.00
2024-04-15T07:26:43.107Z,4.15
2024-04-15T07:29:12.502Z,3.25
2024-04-15T07:31:41.743Z,3.03
2024-04-15T07:34:11.431Z,3.67
2024-04-15T07:36:40.290Z,3.13
2024-04-15T07:39:11.015Z,3.53
2024-04-15T07:41:39.726Z,3.05
2024-04-15T07:44:08.673Z,3.28
2024-04-15T07:46:36.956Z,3.33
2024-04-15T07:49:06.439Z,2.55
2024-04-15T07:51:35.391Z,3.15
2024-04-15T07:54:04.974Z,2.78
2024-04-15T07:56:33.467Z,2.30
2024-04-15T07:59:03.125Z,2.00
2024-04-15T08:01:32.031Z,2.50
2024-04-15T08:04:01.603Z,2.80
2024-04-15T08:06:30.150Z,2.53
2024-04-15T08:08:59.655Z,2.65
2024-04-15T08:11:28.601Z,2.25
2024-04-15T08:13:57.490Z,2.30
2024-04-15T08:16:25.859Z,2.60
2024-04-15T08:18:55.583Z,3.22
2024-04-15T08:21:23.982Z,2.70
2024-04-15T08:23:54.457Z,2.25
2024-04-15T08:26:24.013Z,2.55
2024-04-15T08:28:52.700Z,2.60
2024-04-15T08:31:21.548Z,2.10
2024-04-15T08:33:51.536Z,2.30
2024-04-15T08:36:20.346Z,2.38
2024-04-15T08:38:49.496Z,2.15
2024-04-15T08:41:28.440Z,1.70
2024-04-15T08:44:05.784Z,2.28
2024-04-15T08:46:40.111Z,2.15
2024-04-15T08:49:10.010Z,2.05
2024-04-15T08:51:38.563Z,2.00
2024-04-15T08:54:08.824Z,2.22
2024-04-15T08:56:39.337Z,2.90
2024-04-15T09:01:37.996Z,1.92
2024-04-15T09:04:08.917Z,2.40
2024-04-15T09:06:37.271Z,2.03
2024-04-15T09:09:06.577Z,2.88
2024-04-15T09:11:36.547Z,2.38
2024-04-15T09:14:05.883Z,2.05
2024-04-15T09:16:34.256Z,2.28
2024-04-15T09:19:08.537Z,1.90
2024-04-15T09:21:39.080Z,1.98
2024-04-15T09:24:12.256Z,2.10
2024-04-15T09:26:43.037Z,2.05
2024-04-15T09:29:13.222Z,2.08
2024-04-15T09:31:41.854Z,1.85
2024-04-15T09:34:11.557Z,2.03
2024-04-15T09:36:50.959Z,2.55
2024-04-15T09:39:21.960Z,2.40
2024-04-15T09:41:50.976Z,2.40
2024-04-15T09:44:22.185Z,1.77
2024-04-15T09:46:51.029Z,1.88
2024-04-15T09:49:22.910Z,2.13
2024-04-15T09:51:53.479Z,2.13
2024-04-15T09:54:25.694Z,2.08
2024-04-15T09:56:57.402Z,1.90
2024-04-15T09:59:27.943Z,2.13
2024-04-15T10:01:59.320Z,2.22
2024-04-15T10:04:33.180Z,2.08
2024-04-15T10:07:04.917Z,2.30
2024-04-15T10:09:33.814Z,2.15
2024-04-15T10:12:02.470Z,2.47
2024-04-15T10:14:31.832Z,1.60
2024-04-15T10:17:00.305Z,2.00
2024-04-15T10:19:34.293Z,1.73
2024-04-15T10:22:03.626Z,1.73
2024-04-15T10:24:33.249Z,1.58
2024-04-15T10:27:04.954Z,1.40
2024-04-15T10:29:39.635Z,1.17
2024-04-15T10:32:10.083Z,1.48
2024-04-15T10:34:45.898Z,1.95
2024-04-15T10:37:14.572Z,3.05
2024-04-15T10:39:47.906Z,1.40
2024-04-15T10:42:17.357Z,1.70
2024-04-15T10:44:46.227Z,1.45
2024-04-15T10:47:14.845Z,2.85
2024-04-15T10:49:43.696Z,1.73
2024-04-15T10:52:12.378Z,2.45
2024-04-15T10:54:42.669Z,2.10
2024-04-15T10:57:11.252Z,1.25
2024-04-15T10:59:42.530Z,1.88
2024-04-15T11:02:11.905Z,1.60
2024-04-15T11:04:41.519Z,1.77
2024-04-15T11:07:10.147Z,1.42
2024-04-15T11:09:39.494Z,2.28
2024-04-15T11:12:08.673Z,1.73
2024-04-15T11:14:38.332Z,1.98
2024-04-15T11:17:09.462Z,1.50
2024-04-15T11:19:39.057Z,1.30
2024-04-15T11:22:09.306Z,1.70
2024-04-15T11:24:39.127Z,1.67
2024-04-15T11:27:10.727Z,1.70
2024-04-15T11:29:51.680Z,2.05
2024-04-15T11:32:26.308Z,2.20
2024-04-15T11:34:56.604Z,1.50
2024-04-15T11:37:25.178Z,1.48
2024-04-15T11:39:55.225Z,2.00
2024-04-15T11:42:32.435Z,1.40
2024-04-15T11:45:07.182Z,1.90
2024-04-15T11:47:35.624Z,1.67
2024-04-15T11:50:05.354Z,2.00
2024-04-15T11:52:34.790Z,1.90
2024-04-15T11:55:04.701Z,1.58
2024-04-15T11:57:35.005Z,1.52
2024-04-15T12:00:03.906Z,1.75
2024-04-15T12:02:45.317Z,1.70
2024-04-15T12:05:15.052Z,1.95
2024-04-15T12:07:44.585Z,2.10
2024-04-15T12:10:14.465Z,1.40
2024-04-15T12:12:43.692Z,1.92
2024-04-15T12:15:13.534Z,1.60
2024-04-15T12:17:41.948Z,1.90
2024-04-15T12:20:11.173Z,2.05
2024-04-15T12:22:39.409Z,1.70
2024-04-15T12:25:10.037Z,2.47
2024-04-15T12:27:40.042Z,2.35
2024-04-15T12:30:12.939Z,2.22
2024-04-15T12:32:42.085Z,1.50
2024-04-15T12:35:12.387Z,1.48
2024-04-15T12:37:41.122Z,1.65
2024-04-15T12:40:10.097Z,1.40
2024-04-15T12:42:38.290Z,2.35
2024-04-15T12:45:07.700Z,1.52
2024-04-15T12:47:36.501Z,1.65
2024-04-15T12:50:06.145Z,1.33
2024-04-15T12:52:35.012Z,1.85
2024-04-15T12:55:04.469Z,1.30
2024-04-15T12:57:33.098Z,1.58
2024-04-15T13:00:02.003Z,1.30
2024-04-15T13:02:30.764Z,2.15
2024-04-15T13:05:00.644Z,1.52
2024-04-15T13:07:29.055Z,1.80
2024-04-15T13:09:58.844Z,1.58
2024-04-15T13:12:27.386Z,1.80
2024-04-15T13:14:56.422Z,1.80
2024-04-15T13:17:24.506Z,1.25
2024-04-15T13:19:53.778Z,1.63
2024-04-15T13:22:21.755Z,1.40
2024-04-15T13:24:50.725Z,2.00
2024-04-15T13:27:19.159Z,1.65
2024-04-15T13:29:47.791Z,1.63
2024-04-15T13:32:19.770Z,1.80
2024-04-15T13:34:50.007Z,1.90
2024-04-15T13:37:18.829Z,1.75
2024-04-15T13:39:47.762Z,1.80
2024-04-15T13:42:16.189Z,1.70
2024-04-15T13:44:45.368Z,1.70
2024-04-15T13:47:14.119Z,1.38
2024-04-15T13:49:43.011Z,1.42
2024-04-15T13:52:11.330Z,1.30
2024-04-15T13:54:40.308Z,1.88
2024-04-15T13:57:10.565Z,1.60
2024-04-15T13:59:41.014Z,1.23
2024-04-15T14:02:10.146Z,1.60
2024-04-15T14:04:39.412Z,3.22
2024-04-15T14:07:08.094Z,2.00
2024-04-15T14:09:37.148Z,1.45
2024-04-15T14:12:07.379Z,1.50
2024-04-15T14:14:36.907Z,2.72
2024-04-15T14:17:11.307Z,1.48
2024-04-15T14:19:41.075Z,1.58
2024-04-15T14:22:09.607Z,1.48
2024-04-15T14:24:42.083Z,11.05
2024-04-15T14:27:10.887Z,5.07
2024-04-15T14:29:40.610Z,23.17
2024-04-15T14:32:08.951Z,2.33
2024-04-15T14:34:37.609Z,1.77
2024-04-15T14:37:06.582Z,1.50
2024-04-15T14:39:35.601Z,4.35
2024-04-15T14:42:03.978Z,6.85
2024-04-15T14:44:32.668Z,2.15
2024-04-15T14:47:03.543Z,1.55
2024-04-15T14:49:32.734Z,1.58
2024-04-15T14:52:01.225Z,1.65
2024-04-15T14:54:30.151Z,1.23
2024-04-15T14:56:59.010Z,1.20
2024-04-15T14:59:29.002Z,1.25
2024-04-15T15:02:01.233Z,1.90
2024-04-15T15:04:30.757Z,1.85
2024-04-15T15:06:59.785Z,1.92
2024-04-15T15:09:29.077Z,1.40
2024-04-15T15:11:57.558Z,1.63
2024-04-15T15:14:26.530Z,2.30
2024-04-15T15:16:55.113Z,1.10
2024-04-15T15:19:24.171Z,1.15
2024-04-15T15:21:52.766Z,1.77
2024-04-15T15:24:21.959Z,1.50
2024-04-15T15:26:50.710Z,1.80
2024-04-15T15:29:20.151Z,2.00
2024-04-15T15:31:49.115Z,1.50
2024-04-15T15:34:18.356Z,2.17
2024-04-15T15:36:46.767Z,2.10
2024-04-15T15:39:15.698Z,1.90
2024-04-15T15:41:43.957Z,2.13
2024-04-15T15:44:12.982Z,2.15
2024-04-15T15:46:42.256Z,1.98
2024-04-15T15:49:11.435Z,2.03
2024-04-15T15:51:41.463Z,2.90
2024-04-15T15:54:10.325Z,2.40
2024-04-15T15:56:39.618Z,2.80
2024-04-15T15:59:09.238Z,2.13
2024-04-15T16:01:39.215Z,2.38
2024-04-15T16:04:08.503Z,2.28
2024-04-15T16:06:37.065Z,2.42
2024-04-15T16:09:06.439Z,3.03
2024-04-15T16:11:39.913Z,2.95
2024-04-15T16:14:15.112Z,2.40
2024-04-15T16:16:43.557Z,2.78
2024-04-15T16:19:13.755Z,2.85
2024-04-15T16:21:42.771Z,3.20
2024-04-15T16:24:11.658Z,2.85
2024-04-15T16:26:40.310Z,2.90
2024-04-15T16:29:10.261Z,2.90
2024-04-15T16:31:38.594Z,3.20
2024-04-15T16:34:08.232Z,2.75
2024-04-15T16:36:36.892Z,3.67
2024-04-15T16:39:06.280Z,3.10
2024-04-15T16:41:34.776Z,2.90
2024-04-15T16:44:03.805Z,3.63
2024-04-15T16:46:32.465Z,3.75
2024-04-15T16:49:01.832Z,3.33
2024-04-15T16:51:29.795Z,3.03
2024-04-15T16:53:58.404Z,3.70
2024-04-15T16:56:27.004Z,3.05
2024-04-15T16:58:56.119Z,3.38
2024-04-15T17:01:24.489Z,3.63
2024-04-15T17:03:53.327Z,4.85
2024-04-15T17:06:21.546Z,4.45
2024-04-15T17:08:50.355Z,5.15
2024-04-15T17:11:19.597Z,3.67
2024-04-15T17:13:48.789Z,3.10
2024-04-15T17:16:17.403Z,3.22
2024-04-15T17:18:46.227Z,4.95
2024-04-15T17:21:16.341Z,3.35
2024-04-15T17:23:45.435Z,3.13
2024-04-15T17:26:13.913Z,3.17
2024-04-15T17:28:42.664Z,3.50
2024-04-15T17:31:11.304Z,3.15
2024-04-15T17:33:40.543Z,3.10
2024-04-15T17:36:09.469Z,3.10
2024-04-15T17:38:38.329Z,4.53
2024-04-15T17:41:06.805Z,5.75
2024-04-15T17:43:35.824Z,4.85
2024-04-15T17:46:04.564Z,4.80
2024-04-15T17:48:34.246Z,4.15
2024-04-15T17:51:06.096Z,4.35
2024-04-15T17:53:35.224Z,3.60
2024-04-15T17:56:03.879Z,3.38
2024-04-15T17:58:32.606Z,3.50
2024-04-15T18:01:03.080Z,4.75
2024-04-15T18:03:32.703Z,3.70
2024-04-15T18:06:01.376Z,3.97
2024-04-15T18:08:30.178Z,5.65
2024-04-15T18:10:58.994Z,5.20
2024-04-15T18:13:28.540Z,5.82
2024-04-15T18:15:57.981Z,7.95
2024-04-15T18:18:29.738Z,8.32
2024-04-15T18:21:00.247Z,11.70
2024-04-15T18:23:29.044Z,10.45
2024-04-15T18:25:57.146Z,11.45
2024-04-15T18:28:26.669Z,8.85
2024-04-15T18:30:55.211Z,10.43
2024-04-15T18:33:23.883Z,10.68
2024-04-15T18:35:52.702Z,11.75
2024-04-15T18:38:21.932Z,16.42
2024-04-15T18:40:50.340Z,18.02
2024-04-15T18:43:19.284Z,16.42
2024-04-15T18:45:48.511Z,13.45
2024-04-15T18:48:17.550Z,8.32
2024-04-15T18:50:46.461Z,7.55
2024-04-15T18:53:15.968Z,6.93
2024-04-15T18:55:44.364Z,6.40
2024-04-15T18:58:13.127Z,6.22
2024-04-15T19:00:41.898Z,5.25
2024-04-15T19:03:11.776Z,6.55
2024-04-15T19:05:40.604Z,5.22
2024-04-15T19:08:12.476Z,5.40
2024-04-15T19:10:41.991Z,4.45
2024-04-15T19:13:12.185Z,4.72
2024-04-15T19:15:40.423Z,5.10
2024-04-15T19:18:09.903Z,6.82
2024-04-15T19:20:38.503Z,5.28
2024-04-15T19:23:07.660Z,6.32
2024-04-15T19:25:35.973Z,6.30
2024-04-15T19:28:05.578Z,5.72
2024-04-15T19:30:38.052Z,6.43
2024-04-15T19:33:10.807Z,5.90
2024-04-15T19:35:48.313Z,6.18
2024-04-15T19:38:20.579Z,6.57
2024-04-15T19:40:49.106Z,5.90
2024-04-15T19:43:17.650Z,6.32
2024-04-15T19:45:46.520Z,7.30
2024-04-15T19:48:15.644Z,6.60
2024-04-15T19:50:44.826Z,6.35
2024-04-15T19:53:14.089Z,6.53
2024-04-15T19:55:43.347Z,7.25
2024-04-15T19:58:13.402Z,6.53
2024-04-15T20:00:41.787Z,6.65
2024-04-15T20:03:13.378Z,7.20
2024-04-15T20:05:42.750Z,8.00
2024-04-15T20:08:20.595Z,7.00
2024-04-15T20:10:51.145Z,7.53
2024-04-15T20:13:20.739Z,6.97
2024-04-15T20:15:52.045Z,7.15
2024-04-15T20:18:43.708Z,6.97
2024-04-15T20:21:12.051Z,7.00
2024-04-15T20:23:41.027Z,7.50
2024-04-15T20:26:10.033Z,7.20
2024-04-15T20:28:44.421Z,6.63
2024-04-15T20:31:12.935Z,6.60
2024-04-15T20:33:41.751Z,6.60
2024-04-15T20:36:11.486Z,6.35
2024-04-15T20:38:42.903Z,5.78
2024-04-15T20:41:11.693Z,5.95
2024-04-15T20:43:40.665Z,5.25
2024-04-15T20:46:09.785Z,6.30
2024-04-15T20:48:38.892Z,5.72
2024-04-15T20:51:07.257Z,5.75
2024-04-15T20:53:36.551Z,5.85
2024-04-15T20:56:05.266Z,5.13
2024-04-15T20:58:34.033Z,5.43
2024-04-15T21:01:04.812Z,6.03
2024-04-15T21:03:34.481Z,4.82
2024-04-15T21:06:03.126Z,4.85
2024-04-15T21:08:32.272Z,5.53
2024-04-15T21:11:00.736Z,5.10
2024-04-15T21:13:29.833Z,5.63
2024-04-15T21:15:58.354Z,6.20
2024-04-15T21:18:27.072Z,6.07
2024-04-15T21:20:55.673Z,5.88
2024-04-15T21:23:24.352Z,5.65
2024-04-15T21:25:53.007Z,5.90
2024-04-15T21:28:22.080Z,5.82
2024-04-15T21:30:50.727Z,5.90
2024-04-15T21:33:21.137Z,6.18
2024-04-15T21:35:49.346Z,6.43
2024-04-15T21:38:18.231Z,5.72
2024-04-15T21:40:46.032Z,6.65
2024-04-15T21:43:16.823Z,5.55
2024-04-15T21:45:46.801Z,5.90
2024-04-15T21:48:15.943Z,5.70
2024-04-15T21:50:43.950Z,5.57
2024-04-15T21:53:13.856Z,5.57
2024-04-15T21:55:42.066Z,6.40
2024-04-15T21:58:10.716Z,6.30
2024-04-15T22:00:39.407Z,6.20
2024-04-15T22:03:09.122Z,6.72
2024-04-15T22:05:38.392Z,6.45
2024-04-15T22:08:07.355Z,6.43
2024-04-15T22:10:36.422Z,7.22
2024-04-15T22:13:05.546Z,7.13
2024-04-15T22:15:34.093Z,6.75
2024-04-15T22:18:03.160Z,6.60
2024-04-15T22:20:31.522Z,6.90
2024-04-15T22:23:01.197Z,6.68
2024-04-15T22:25:30.416Z,6.47
2024-04-15T22:28:00.669Z,6.32
2024-04-15T22:30:28.937Z,6.85
2024-04-15T22:32:58.458Z,7.07
2024-04-15T22:35:26.730Z,5.88
2024-04-15T22:37:55.429Z,6.60
2024-04-15T22:40:23.865Z,7.07
2024-04-15T22:42:52.924Z,6.95
2024-04-15T22:45:21.218Z,7.38
2024-04-15T22:47:49.763Z,6.53
2024-04-15T22:50:18.530Z,7.25
2024-04-15T22:52:47.490Z,6.95
2024-04-15T22:55:15.840Z,7.20
2024-04-15T22:57:44.440Z,6.50
2024-04-15T23:00:13.234Z,6.70
2024-04-15T23:02:42.002Z,6.82
2024-04-15T23:05:10.508Z,7.38
2024-04-15T23:07:41.179Z,7.03
2024-04-15T23:10:09.740Z,7.10
2024-04-15T23:12:38.559Z,6.72
2024-04-15T23:15:07.214Z,6.50
2024-04-15T23:17:36.640Z,7.57
2024-04-15T23:20:05.506Z,6.28
2024-04-15T23:22:34.906Z,6.95
2024-04-15T23:25:04.070Z,6.95
2024-04-15T23:27:32.736Z,7.45
2024-04-15T23:30:01.081Z,7.50
2024-04-15T23:32:30.119Z,7.13
2024-04-15T23:34:58.559Z,7.93
2024-04-15T23:37:27.180Z,7.68
2024-04-15T23:39:55.396Z,7.60
2024-04-15T23:42:24.648Z,7.95
2024-04-15T23:45:11.948Z,8.02
2024-04-15T23:47:59.337Z,8.60
2024-04-15T23:50:46.493Z,8.82
2024-04-15T23:53:33.837Z,7.65
2024-04-15T23:56:21.035Z,8.45
2024-04-15T23:58:49.848Z,7.20
